Time;durP1;ratioP1;P1;durP2;ratioP2;P2;SDS_P1;SDS_P2;PMS_P1;PMS_P2;Temp;Humidity;BMP_temperature;BMP_pressure;BME280_temperature;BME280_humidity;BME280_pressure;Samples;Min_cycle;Max_cycle;Signal;HPM_P1;HPM_P2
2022/07/24 00:02:23;;;;;;;2.03;1.92;;;16.70;99.90;;;;;;4714382;28;10000320;-74
2022/07/24 00:04:49;;;;;;;2.80;1.90;;;16.60;99.90;;;;;;5054217;28;20055;-75
2022/07/24 00:07:15;;;;;;;2.25;2.05;;;16.60;99.90;;;;;;5046917;28;20593;-74
2022/07/24 00:09:41;;;;;;;2.20;2.00;;;16.60;99.90;;;;;;5050645;28;20544;-74
2022/07/24 00:12:07;;;;;;;1.90;1.80;;;16.60;99.90;;;;;;5055231;28;20646;-74
2022/07/24 00:14:32;;;;;;;2.35;1.90;;;16.50;99.90;;;;;;5067977;28;20035;-74
2022/07/24 00:16:58;;;;;;;2.10;1.88;;;16.50;99.90;;;;;;5065735;28;20054;-74
2022/07/24 00:19:24;;;;;;;2.13;1.92;;;16.50;99.90;;;;;;5044900;28;20103;-74
2022/07/24 00:21:49;;;;;;;2.35;2.10;;;16.50;99.90;;;;;;5052017;28;20021;-74
2022/07/24 00:24:15;;;;;;;2.78;2.10;;;16.50;99.90;;;;;;5060740;28;20103;-74
2022/07/24 00:26:41;;;;;;;4.13;2.80;;;16.50;99.90;;;;;;5059310;28;20020;-74
2022/07/24 00:29:07;;;;;;;2.83;2.60;;;16.50;99.90;;;;;;5053013;28;20713;-74
2022/07/24 00:31:32;;;;;;;2.97;2.65;;;16.50;99.90;;;;;;5050053;28;20029;-74
2022/07/24 00:33:58;;;;;;;4.45;2.97;;;16.50;99.90;;;;;;5054796;28;20070;-74
2022/07/24 00:36:24;;;;;;;3.13;2.65;;;16.50;99.90;;;;;;5019617;28;1142001;-74
2022/07/24 00:38:49;;;;;;;3.85;3.22;;;16.40;99.90;;;;;;5056631;28;20374;-74
2022/07/24 00:41:15;;;;;;;3.25;2.90;;;16.40;99.90;;;;;;5058245;28;20079;-75
2022/07/24 00:44:05;;;;;;;3.97;2.58;;;16.30;99.90;;;;;;5064373;28;20028;-74
2022/07/24 00:46:32;;;;;;;4.95;2.50;;;16.20;99.90;;;;;;5056525;28;20044;-75
2022/07/24 00:48:57;;;;;;;3.00;2.70;;;16.10;99.90;;;;;;5054620;28;20119;-74
2022/07/24 00:51:23;;;;;;;3.55;2.58;;;16.10;99.90;;;;;;5055111;28;20120;-75
2022/07/24 00:53:49;;;;;;;3.58;2.97;;;16.20;99.90;;;;;;5053797;28;20017;-75
2022/07/24 00:56:15;;;;;;;4.55;2.90;;;16.10;99.90;;;;;;5050094;28;20024;-74
2022/07/24 00:58:40;;;;;;;2.60;2.40;;;16.10;99.90;;;;;;5055036;28;20024;-74
2022/07/24 01:01:06;;;;;;;3.47;2.63;;;16.10;99.90;;;;;;5053000;28;20025;-74
2022/07/24 01:03:31;;;;;;;3.67;2.60;;;16.00;99.90;;;;;;5066457;28;20147;-75
2022/07/24 01:05:58;;;;;;;2.92;2.63;;;15.90;99.90;;;;;;5056280;28;20056;-75
2022/07/24 01:08:24;;;;;;;2.83;2.33;;;15.90;99.90;;;;;;5044883;28;20029;-75
2022/07/24 01:10:50;;;;;;;3.13;2.70;;;15.90;99.90;;;;;;5058933;28;20108;-74
2022/07/24 01:13:16;;;;;;;3.03;2.78;;;15.90;99.90;;;;;;5055043;28;20599;-74
2022/07/24 01:15:42;;;;;;;4.70;2.95;;;15.90;99.90;;;;;;5057072;28;20100;-75
2022/07/24 01:18:08;;;;;;;3.10;2.80;;;15.90;99.90;;;;;;5054102;28;20172;-75
2022/07/24 01:20:38;;;;;;;3.63;3.33;;;16.00;99.90;;;;;;5056704;28;20056;-75
2022/07/24 01:23:03;;;;;;;3.70;3.40;;;15.90;99.90;;;;;;5055048;28;20120;-74
2022/07/24 01:25:30;;;;;;;4.13;3.72;;;16.00;99.90;;;;;;5062047;28;20112;-74
2022/07/24 01:27:55;;;;;;;4.32;3.78;;;16.00;99.90;;;;;;5048569;28;20048;-74
2022/07/24 01:30:21;;;;;;;5.07;4.22;;;16.00;99.90;;;;;;5045752;28;20071;-74
2022/07/24 01:32:46;;;;;;;3.88;3.28;;;16.00;99.90;;;;;;5056145;28;20084;-74
2022/07/24 01:35:12;;;;;;;5.90;3.95;;;16.00;99.90;;;;;;5052082;28;20056;-74
2022/07/24 01:37:38;;;;;;;6.00;4.00;;;16.10;99.90;;;;;;5058271;28;20055;-74
2022/07/24 01:40:04;;;;;;;4.57;3.92;;;16.10;99.90;;;;;;5049247;28;20843;-74
2022/07/24 01:42:29;;;;;;;4.13;3.72;;;16.10;99.90;;;;;;5051907;28;20851;-74
2022/07/24 01:44:55;;;;;;;5.13;3.70;;;16.10;99.90;;;;;;5054433;28;20032;-74
2022/07/24 01:47:20;;;;;;;4.65;3.55;;;16.00;99.90;;;;;;5052194;28;20027;-74
2022/07/24 01:49:46;;;;;;;4.03;3.58;;;16.00;99.90;;;;;;5053424;28;20688;-74
2022/07/24 01:52:12;;;;;;;4.82;3.47;;;15.90;99.90;;;;;;5046714;28;20078;-74
2022/07/24 01:54:37;;;;;;;5.43;3.30;;;15.90;99.90;;;;;;5047472;28;20020;-74
2022/07/24 01:57:03;;;;;;;4.30;3.42;;;15.80;99.90;;;;;;5050627;28;20103;-74
2022/07/24 01:59:29;;;;;;;4.15;3.60;;;15.70;99.90;;;;;;5044964;28;20028;-74
2022/07/24 02:01:55;;;;;;;3.65;3.35;;;15.60;99.90;;;;;;5054518;28;20032;-74
2022/07/24 02:04:21;;;;;;;3.95;3.58;;;15.60;99.90;;;;;;5051430;28;20035;-74
2022/07/24 02:06:47;;;;;;;5.40;3.95;;;15.50;99.90;;;;;;5052010;28;20115;-74
2022/07/24 02:09:13;;;;;;;4.40;4.00;;;15.50;99.90;;;;;;5065583;28;20035;-74
2022/07/24 02:11:38;;;;;;;4.63;4.20;;;15.50;99.90;;;;;;5053628;28;20085;-75
2022/07/24 02:14:04;;;;;;;5.63;4.40;;;15.40;99.90;;;;;;5050683;28;20072;-74
2022/07/24 02:16:30;;;;;;;5.20;4.57;;;15.40;99.90;;;;;;5056039;28;20077;-74
2022/07/24 02:18:56;;;;;;;5.40;4.90;;;15.30;99.90;;;;;;5055470;28;20409;-74
2022/07/24 02:21:21;;;;;;;4.60;4.18;;;15.30;99.90;;;;;;5047361;28;20106;-75
2022/07/24 02:23:47;;;;;;;4.68;4.18;;;15.20;99.90;;;;;;5060282;28;20036;-75
2022/07/24 02:26:12;;;;;;;4.88;4.00;;;15.10;99.90;;;;;;5046980;28;20455;-75
2022/07/24 02:28:38;;;;;;;6.13;4.40;;;15.00;99.90;;;;;;5055560;28;20065;-75
2022/07/24 02:31:03;;;;;;;5.35;4.68;;;15.00;99.90;;;;;;5048903;28;20036;-74
2022/07/24 02:33:29;;;;;;;5.22;3.92;;;15.00;99.90;;;;;;5056814;28;20481;-75
2022/07/24 02:35:55;;;;;;;4.70;4.30;;;14.90;99.90;;;;;;5054565;28;20025;-75
2022/07/24 02:38:20;;;;;;;4.95;4.45;;;14.90;99.90;;;;;;5053469;28;20102;-75
2022/07/24 02:40:46;;;;;;;5.20;4.53;;;14.90;99.90;;;;;;5073229;28;20582;-74
2022/07/24 02:43:11;;;;;;;4.95;4.45;;;14.90;99.90;;;;;;5069349;28;20028;-74
2022/07/24 02:45:37;;;;;;;5.00;4.50;;;14.80;99.90;;;;;;5059926;28;20033;-74
2022/07/24 02:48:03;;;;;;;4.03;3.72;;;14.80;99.90;;;;;;5052904;28;20028;-74
2022/07/24 02:50:31;;;;;;;5.70;4.20;;;14.80;99.90;;;;;;5048649;28;20564;-74
2022/07/24 02:52:57;;;;;;;4.68;4.20;;;14.70;99.90;;;;;;5048577;28;20043;-74
2022/07/24 02:55:23;;;;;;;4.85;4.32;;;14.70;99.90;;;;;;5063593;28;20024;-74
2022/07/24 02:57:49;;;;;;;4.60;4.20;;;14.70;99.90;;;;;;5060830;28;20020;-74
2022/07/24 03:00:16;;;;;;;6.28;4.55;;;14.70;99.90;;;;;;5051309;28;20105;-74
2022/07/24 03:02:43;;;;;;;5.53;4.47;;;14.80;99.90;;;;;;5050333;28;20024;-74
2022/07/24 03:05:09;;;;;;;4.78;4.38;;;14.80;99.90;;;;;;5051150;28;20400;-74
2022/07/24 03:07:36;;;;;;;4.50;4.10;;;14.80;99.90;;;;;;5055018;28;20514;-74
2022/07/24 03:10:03;;;;;;;5.63;4.60;;;14.70;99.90;;;;;;5061109;28;20028;-74
2022/07/24 03:12:29;;;;;;;5.20;4.53;;;14.70;99.90;;;;;;5046299;28;20025;-75
2022/07/24 03:14:54;;;;;;;5.15;4.60;;;14.70;99.90;;;;;;5054806;28;20512;-74
2022/07/24 03:17:20;;;;;;;5.90;4.20;;;14.70;99.90;;;;;;5050693;28;20108;-74
2022/07/24 03:19:45;;;;;;;5.00;4.45;;;14.70;99.90;;;;;;5051384;28;20063;-74
2022/07/24 03:22:11;;;;;;;5.90;4.32;;;14.70;99.90;;;;;;5046738;28;20025;-74
2022/07/24 03:24:37;;;;;;;5.00;4.50;;;14.70;99.90;;;;;;5050743;28;20029;-75
2022/07/24 03:27:02;;;;;;;4.75;4.32;;;14.70;99.90;;;;;;5049264;28;20489;-74
2022/07/24 03:29:28;;;;;;;4.65;4.25;;;14.70;99.90;;;;;;5055176;28;20025;-74
2022/07/24 03:31:54;;;;;;;4.32;3.92;;;14.70;99.90;;;;;;5059898;28;20043;-75
2022/07/24 03:34:19;;;;;;;4.10;3.70;;;14.70;99.90;;;;;;5062184;28;20021;-74
2022/07/24 03:36:45;;;;;;;4.80;4.20;;;14.70;99.90;;;;;;5058666;28;20087;-74
2022/07/24 03:39:11;;;;;;;4.72;4.20;;;14.70;99.90;;;;;;5069102;28;20031;-75
2022/07/24 03:41:37;;;;;;;4.80;4.30;;;14.70;99.90;;;;;;5070259;28;20475;-75
2022/07/24 03:44:02;;;;;;;4.25;3.85;;;14.70;99.90;;;;;;5050306;28;20703;-75
2022/07/24 03:46:28;;;;;;;4.60;4.10;;;14.70;99.90;;;;;;5067855;28;20162;-75
2022/07/24 03:48:55;;;;;;;5.93;4.40;;;14.60;99.90;;;;;;5073105;28;20024;-74
2022/07/24 03:51:21;;;;;;;4.95;4.20;;;14.60;99.90;;;;;;5068104;28;20031;-74
2022/07/24 03:53:47;;;;;;;4.82;4.43;;;14.60;99.90;;;;;;5069891;28;20024;-74
2022/07/24 03:56:13;;;;;;;5.78;4.82;;;14.60;99.90;;;;;;5070809;28;20522;-74
2022/07/24 03:58:39;;;;;;;10.77;5.43;;;14.60;99.90;;;;;;5046939;28;20025;-74
2022/07/24 04:01:04;;;;;;;7.03;5.07;;;14.60;99.90;;;;;;5071160;28;20024;-74
2022/07/24 04:03:30;;;;;;;5.80;5.10;;;14.60;99.90;;;;;;5068131;28;20668;-74
2022/07/24 04:05:55;;;;;;;6.97;5.75;;;14.50;99.90;;;;;;5070002;28;20032;-74
2022/07/24 04:08:21;;;;;;;6.38;5.60;;;14.50;99.90;;;;;;5051873;28;20025;-74
2022/07/24 04:10:48;;;;;;;9.45;6.15;;;14.50;99.90;;;;;;5078804;28;20414;-74
2022/07/24 04:13:13;;;;;;;6.80;5.95;;;14.50;99.90;;;;;;5051274;28;20036;-74
2022/07/24 04:15:39;;;;;;;7.50;5.88;;;14.50;99.90;;;;;;5066277;28;20016;-74
2022/07/24 04:18:04;;;;;;;7.15;5.90;;;14.50;99.90;;;;;;5067437;28;20032;-74
2022/07/24 04:20:30;;;;;;;6.63;5.80;;;14.50;99.90;;;;;;5056642;28;20036;-74
2022/07/24 04:22:56;;;;;;;7.80;5.60;;;14.50;99.90;;;;;;5089787;28;20020;-74
2022/07/24 04:25:21;;;;;;;6.95;5.43;;;14.40;99.90;;;;;;5061517;28;20036;-74
2022/07/24 04:27:47;;;;;;;6.88;4.80;;;14.50;99.90;;;;;;5064728;28;20039;-74
2022/07/24 04:30:13;;;;;;;10.05;5.00;;;14.60;99.90;;;;;;5060248;28;20017;-74
2022/07/24 04:32:39;;;;;;;8.70;5.13;;;15.00;99.90;;;;;;5061436;28;20036;-75
2022/07/24 04:35:05;;;;;;;8.30;5.55;;;16.20;99.90;;;;;;5053268;28;20031;-74
2022/07/24 04:37:31;;;;;;;8.63;5.38;;;17.80;99.90;;;;;;5049500;28;20429;-76
2022/07/24 04:39:57;;;;;;;8.73;5.20;;;19.40;99.90;;;;;;5057798;28;20028;-75
2022/07/24 04:42:23;;;;;;;8.43;4.80;;;20.20;99.90;;;;;;5066921;28;20035;-74
2022/07/24 04:44:48;;;;;;;6.20;4.63;;;20.30;99.90;;;;;;5072424;28;20032;-74
2022/07/24 04:47:14;;;;;;;5.53;4.60;;;19.90;99.90;;;;;;5074658;28;20035;-74
2022/07/24 04:49:40;;;;;;;12.13;5.68;;;19.40;99.90;;;;;;5056265;28;20389;-74
2022/07/24 04:52:06;;;;;;;9.35;4.80;;;18.80;99.90;;;;;;5070274;28;20025;-74
2022/07/24 04:54:32;;;;;;;10.77;5.20;;;18.40;99.90;;;;;;5066825;28;20291;-73
2022/07/24 04:56:58;;;;;;;7.38;4.85;;;17.90;99.90;;;;;;5056481;28;20037;-74
2022/07/24 04:59:23;;;;;;;6.25;4.53;;;17.60;99.90;;;;;;5050678;28;20109;-74
2022/07/24 05:02:43;;;;;;;4.70;4.30;;;17.40;99.90;;;;;;5061208;28;20397;-75
2022/07/24 05:05:09;;;;;;;6.63;4.68;;;;;;;;;;5049794;28;20053;-75
2022/07/24 05:07:35;;;;;;;5.38;4.47;;;17.00;99.90;;;;;;5061291;28;20040;-74
2022/07/24 05:10:00;;;;;;;5.18;4.30;;;16.90;99.90;;;;;;5047543;28;20464;-74
2022/07/24 05:12:26;;;;;;;8.00;4.68;;;16.70;99.90;;;;;;5062435;28;20111;-75
2022/07/24 05:14:52;;;;;;;5.90;4.85;;;16.70;99.90;;;;;;5061633;28;20444;-74
2022/07/24 05:17:18;;;;;;;7.38;5.55;;;16.80;99.90;;;;;;4709846;28;10000674;-74
2022/07/24 05:19:43;;;;;;;6.50;5.28;;;16.80;99.90;;;;;;5051021;28;20029;-74
2022/07/24 05:22:09;;;;;;;6.40;5.05;;;16.90;99.90;;;;;;5056634;28;20583;-74
2022/07/24 05:24:34;;;;;;;9.18;5.13;;;17.00;99.90;;;;;;5047873;28;20398;-74
2022/07/24 05:27:00;;;;;;;5.80;5.20;;;17.00;99.90;;;;;;5054765;28;20070;-74
2022/07/24 05:29:26;;;;;;;5.75;5.07;;;17.00;99.90;;;;;;5046991;28;20047;-74
2022/07/24 05:31:54;;;;;;;7.07;6.03;;;17.00;99.90;;;;;;5066652;28;20059;-74
2022/07/24 05:34:20;;;;;;;6.13;5.10;;;17.10;99.90;;;;;;5046997;28;20033;-74
2022/07/24 05:36:46;;;;;;;7.53;5.55;;;17.10;99.90;;;;;;5060995;28;20045;-74
2022/07/24 05:39:11;;;;;;;5.57;4.35;;;17.20;99.90;;;;;;5045126;28;20036;-74
2022/07/24 05:41:37;;;;;;;5.88;5.30;;;17.20;99.90;;;;;;5062243;28;20033;-74
2022/07/24 05:44:03;;;;;;;6.22;4.97;;;17.30;99.90;;;;;;5056296;28;20116;-74
2022/07/24 05:46:28;;;;;;;6.22;4.72;;;17.40;99.90;;;;;;5049838;28;20475;-74
2022/07/24 05:48:54;;;;;;;6.47;5.22;;;17.50;99.90;;;;;;5047567;28;20051;-75
2022/07/24 05:51:20;;;;;;;8.70;5.15;;;17.60;99.90;;;;;;5064888;28;20119;-72
2022/07/24 05:53:45;;;;;;;6.07;5.28;;;17.80;99.90;;;;;;5065243;28;20083;-72
2022/07/24 05:56:11;;;;;;;6.55;4.80;;;18.00;99.90;;;;;;5051746;28;20025;-72
2022/07/24 05:58:36;;;;;;;6.88;4.88;;;18.10;99.90;;;;;;5064918;28;20047;-72
2022/07/24 06:01:02;;;;;;;7.80;4.60;;;18.20;99.90;;;;;;5062275;28;20030;-72
2022/07/24 06:03:28;;;;;;;6.25;4.60;;;18.20;99.90;;;;;;5050968;28;20036;-73
2022/07/24 06:05:53;;;;;;;5.15;4.57;;;18.20;99.90;;;;;;5059722;28;20024;-72
2022/07/24 06:08:19;;;;;;;5.28;4.20;;;18.20;99.90;;;;;;5060857;28;20750;-72
2022/07/24 06:10:45;;;;;;;5.25;4.30;;;18.10;99.90;;;;;;5067463;28;20020;-74
2022/07/24 06:13:10;;;;;;;5.95;4.10;;;18.10;99.90;;;;;;5065355;28;20556;-74
2022/07/24 06:15:36;;;;;;;6.13;4.60;;;18.10;99.90;;;;;;5055599;28;20116;-74
2022/07/24 06:18:02;;;;;;;4.72;4.30;;;18.00;99.90;;;;;;5062178;28;20032;-79
2022/07/24 06:20:27;;;;;;;4.68;4.00;;;17.90;99.90;;;;;;5056828;28;20036;-75
2022/07/24 06:22:53;;;;;;;4.75;4.20;;;17.90;99.90;;;;;;5045798;28;20028;-74
2022/07/24 06:25:19;;;;;;;4.57;4.10;;;18.10;99.90;;;;;;5048262;28;20560;-74
2022/07/24 06:27:49;;;;;;;5.93;3.45;;;18.20;99.90;;;;;;5047271;28;20370;-74
2022/07/24 06:30:22;;;;;;;3.78;3.45;;;18.30;99.90;;;;;;5052131;28;20583;-74
2022/07/24 06:32:48;;;;;;;4.18;3.75;;;18.50;99.90;;;;;;5058314;28;20501;-74
2022/07/24 06:35:15;;;;;;;7.35;4.10;;;18.50;99.90;;;;;;5049338;28;20111;-74
2022/07/24 06:37:41;;;;;;;5.60;4.22;;;18.60;99.90;;;;;;5047637;28;20053;-74
2022/07/24 06:40:08;;;;;;;4.93;3.90;;;18.60;99.90;;;;;;5045021;28;20017;-74
2022/07/24 06:42:35;;;;;;;5.10;3.47;;;18.70;99.90;;;;;;5060974;28;20060;-74
2022/07/24 06:45:01;;;;;;;5.53;3.60;;;18.80;99.90;;;;;;5047857;28;20100;-74
2022/07/24 06:47:27;;;;;;;5.20;3.88;;;18.90;99.90;;;;;;5046911;28;20052;-74
2022/07/24 06:49:55;;;;;;;8.43;3.75;;;19.00;99.90;;;;;;5055703;28;20477;-74
2022/07/24 06:52:22;;;;;;;5.90;3.55;;;19.20;99.90;;;;;;5059099;28;20025;-74
2022/07/24 06:54:48;;;;;;;4.10;3.45;;;19.40;99.90;;;;;;5049177;28;20663;-74
2022/07/24 06:57:13;;;;;;;5.60;4.05;;;19.70;99.90;;;;;;5054238;28;20037;-74
2022/07/24 06:59:40;;;;;;;4.60;3.50;;;20.00;99.90;;;;;;5063590;28;20138;-74
2022/07/24 07:02:06;;;;;;;6.10;3.67;;;20.20;99.90;;;;;;5057477;28;20036;-74
2022/07/24 07:04:32;;;;;;;4.00;3.38;;;20.40;99.90;;;;;;5047561;28;20033;-74
2022/07/24 07:06:57;;;;;;;4.30;3.33;;;20.70;99.90;;;;;;5056595;28;20493;-74
2022/07/24 07:09:23;;;;;;;6.15;3.17;;;20.90;99.90;;;;;;5048229;28;20122;-74
2022/07/24 07:11:48;;;;;;;3.03;2.72;;;21.10;99.90;;;;;;5054039;28;20396;-74
2022/07/24 07:14:14;;;;;;;3.33;2.85;;;21.10;99.90;;;;;;5070390;28;20021;-75
2022/07/24 07:16:39;;;;;;;3.63;3.10;;;21.10;99.90;;;;;;5067085;28;20032;-74
2022/07/24 07:19:05;;;;;;;3.92;2.60;;;21.30;99.90;;;;;;5058505;28;20028;-74
2022/07/24 07:21:31;;;;;;;4.70;2.95;;;21.50;99.90;;;;;;5059866;28;20025;-74
2022/07/24 07:23:57;;;;;;;4.03;2.90;;;21.60;99.90;;;;;;5051516;28;20495;-74
2022/07/24 07:26:22;;;;;;;5.18;2.75;;;21.80;99.90;;;;;;5051439;28;20032;-74
2022/07/24 07:28:48;;;;;;;5.55;3.05;;;21.90;99.90;;;;;;5088626;28;20126;-74
2022/07/24 07:31:14;;;;;;;2.75;2.50;;;22.00;99.90;;;;;;5090397;28;20028;-74
2022/07/24 07:33:39;;;;;;;2.58;2.38;;;22.20;99.90;;;;;;5064478;28;20508;-75
2022/07/24 07:36:05;;;;;;;5.47;2.63;;;22.50;99.90;;;;;;5066895;28;20111;-74
2022/07/24 07:38:31;;;;;;;3.70;2.30;;;22.80;99.90;;;;;;5052397;28;20057;-74
2022/07/24 07:40:56;;;;;;;3.47;2.38;;;22.90;99.90;;;;;;5049881;28;20025;-74
2022/07/24 07:43:22;;;;;;;3.63;2.47;;;23.10;99.90;;;;;;5051373;28;20481;-74
2022/07/24 07:45:48;;;;;;;2.88;2.58;;;23.30;99.90;;;;;;5063147;28;20028;-75
2022/07/24 07:48:13;;;;;;;5.55;2.40;;;23.40;99.90;;;;;;5051222;28;20632;-74
2022/07/24 07:50:39;;;;;;;7.82;2.70;;;23.60;99.90;;;;;;5058260;28;20507;-74
2022/07/24 07:53:04;;;;;;;4.10;2.30;;;23.80;99.90;;;;;;5050856;28;20055;-74
2022/07/24 07:55:30;;;;;;;2.42;2.00;;;23.90;99.90;;;;;;5049265;28;20428;-74
2022/07/24 07:57:55;;;;;;;2.20;2.00;;;24.10;99.90;;;;;;5049512;28;20033;-74
2022/07/24 08:00:22;;;;;;;2.20;1.60;;;24.40;99.90;;;;;;5048541;28;20028;-74
2022/07/24 08:02:48;;;;;;;3.45;1.80;;;24.50;98.90;;;;;;5057254;28;20036;-74
2022/07/24 08:05:13;;;;;;;3.20;2.15;;;24.60;98.20;;;;;;5058851;28;20041;-75
2022/07/24 08:07:39;;;;;;;5.10;2.20;;;24.70;98.50;;;;;;5057162;28;20044;-74
2022/07/24 08:10:06;;;;;;;3.75;2.03;;;24.70;97.00;;;;;;5048083;28;20450;-74
2022/07/24 08:12:31;;;;;;;2.78;2.00;;;24.60;96.80;;;;;;5049015;28;20115;-74
2022/07/24 08:14:57;;;;;;;2.90;1.70;;;24.70;96.40;;;;;;5048074;28;20120;-74
2022/07/24 08:17:22;;;;;;;3.90;1.60;;;24.80;97.30;;;;;;5050250;28;20029;-75
2022/07/24 08:19:48;;;;;;;3.05;1.95;;;25.10;96.90;;;;;;5063164;28;20032;-75
2022/07/24 08:22:14;;;;;;;2.25;1.63;;;25.30;96.50;;;;;;5063104;28;20043;-74
2022/07/24 08:24:40;;;;;;;1.95;1.75;;;25.40;95.40;;;;;;5053647;28;20540;-75
2022/07/24 08:27:05;;;;;;;4.38;1.80;;;25.50;95.00;;;;;;5049257;28;20503;-74
2022/07/24 08:29:31;;;;;;;3.22;1.92;;;25.50;94.40;;;;;;5047262;28;20025;-75
2022/07/24 08:31:57;;;;;;;2.03;1.83;;;25.60;93.90;;;;;;5049184;28;20043;-75
2022/07/24 08:34:23;;;;;;;2.30;1.70;;;25.70;94.20;;;;;;5054179;28;20024;-75
2022/07/24 08:36:48;;;;;;;3.13;2.05;;;25.80;93.80;;;;;;5048871;28;20049;-75
2022/07/24 08:39:15;;;;;;;2.67;2.08;;;25.90;93.00;;;;;;5054323;28;20090;-74
2022/07/24 08:41:41;;;;;;;4.28;2.15;;;26.00;92.60;;;;;;5049533;28;20505;-74
2022/07/24 08:44:08;;;;;;;2.15;1.88;;;26.10;92.80;;;;;;5049272;28;20111;-75
2022/07/24 08:46:37;;;;;;;3.15;1.95;;;26.00;91.20;;;;;;5048676;28;20029;-75
2022/07/24 08:49:06;;;;;;;2.80;1.77;;;26.10;92.30;;;;;;5046628;28;20489;-74
2022/07/24 08:51:33;;;;;;;2.38;1.80;;;26.20;91.80;;;;;;5057120;28;20039;-74
2022/07/24 08:53:59;;;;;;;2.10;1.90;;;26.30;91.50;;;;;;5068665;28;20031;-74
2022/07/24 08:56:25;;;;;;;2.80;2.20;;;26.50;90.60;;;;;;5052861;28;20029;-75
2022/07/24 08:58:51;;;;;;;2.15;1.88;;;26.50;90.60;;;;;;5066678;28;20024;-74
2022/07/24 09:01:17;;;;;;;5.95;2.10;;;26.60;89.00;;;;;;5050247;28;20033;-74
2022/07/24 09:03:45;;;;;;;3.92;2.10;;;26.70;88.10;;;;;;5059665;28;20032;-74
2022/07/24 09:06:12;;;;;;;3.72;2.30;;;26.60;86.20;;;;;;5048271;28;20021;-74
2022/07/24 09:08:39;;;;;;;2.92;2.10;;;26.60;87.00;;;;;;5046835;28;20051;-74
2022/07/24 09:11:06;;;;;;;3.05;2.20;;;26.80;88.30;;;;;;5047910;28;20094;-74
2022/07/24 09:14:29;;;;;;;3.25;2.40;;;27.00;84.40;;;;;;5049239;28;20056;-74
2022/07/24 09:16:23;;;;;;;4.50;2.20;;;27.10;81.30;;;;;;5047602;28;20466;-74
2022/07/24 09:18:51;;;;;;;3.50;2.75;;;27.20;81.10;;;;;;5050220;28;20047;-74
2022/07/24 09:21:18;;;;;;;3.85;2.70;;;27.30;79.90;;;;;;5055399;28;20024;-74
2022/07/24 09:23:44;;;;;;;3.63;2.90;;;27.40;78.60;;;;;;5048204;28;20025;-74
2022/07/24 09:26:11;;;;;;;6.40;3.45;;;27.60;75.70;;;;;;5047920;28;20082;-74
2022/07/24 09:28:57;;;;;;;6.07;3.63;;;27.60;75.80;;;;;;5045246;28;20480;-74
2022/07/24 09:31:23;;;;;;;6.07;3.70;;;27.60;76.30;;;;;;5047631;28;20040;-75
2022/07/24 09:33:49;;;;;;;5.72;3.85;;;27.70;74.90;;;;;;5067247;28;20527;-74
2022/07/24 09:36:18;;;;;;;7.85;3.80;;;27.70;75.40;;;;;;5066374;28;20202;-75
2022/07/24 09:38:49;;;;;;;5.07;3.67;;;27.60;73.40;;;;;;5064044;28;20434;-75
2022/07/24 09:41:23;;;;;;;4.45;3.38;;;27.70;75.40;;;;;;5067253;28;20121;-75
2022/07/24 09:44:03;;;;;;;7.28;4.00;;;27.80;73.70;;;;;;5048184;28;20037;-75
2022/07/24 09:46:29;;;;;;;6.30;3.40;;;27.60;70.90;;;;;;5048003;28;20029;-75
2022/07/24 09:48:57;;;;;;;6.03;3.33;;;27.60;72.20;;;;;;5045602;28;20021;-75
2022/07/24 09:51:24;;;;;;;4.43;3.50;;;27.80;73.20;;;;;;5051597;28;20481;-75
2022/07/24 09:53:58;;;;;;;4.75;3.40;;;27.90;73.30;;;;;;5047473;28;20035;-75
2022/07/24 09:56:25;;;;;;;5.40;3.47;;;28.10;73.10;;;;;;5061540;28;20349;-75
2022/07/24 09:58:59;;;;;;;4.38;3.75;;;28.20;72.00;;;;;;5064707;28;20078;-75
2022/07/24 10:01:27;;;;;;;5.18;4.43;;;28.20;69.80;;;;;;5067447;28;20028;-75
2022/07/24 10:03:55;;;;;;;4.20;3.85;;;28.10;69.20;;;;;;5051824;28;20102;-75
2022/07/24 10:06:25;;;;;;;4.05;3.60;;;28.00;70.10;;;;;;5047103;28;20055;-74
2022/07/24 10:08:52;;;;;;;4.38;3.42;;;27.90;70.60;;;;;;5048616;28;20052;-74
2022/07/24 10:11:19;;;;;;;4.97;3.38;;;28.10;70.20;;;;;;5045743;28;20033;-74
2022/07/24 10:13:45;;;;;;;4.10;3.70;;;28.20;71.00;;;;;;5047479;28;20417;-74
2022/07/24 10:16:13;;;;;;;14.48;4.82;;;28.20;69.80;;;;;;5059663;28;20016;-74
2022/07/24 10:18:51;;;;;;;7.80;4.40;;;28.20;69.50;;;;;;5060219;28;20067;-74
2022/07/24 10:21:20;;;;;;;5.10;3.40;;;;;;;;;;5066838;28;20037;-74
2022/07/24 10:24:07;;;;;;;3.45;3.15;;;;;;;;;;5066786;28;20079;-74
2022/07/24 10:26:43;;;;;;;3.67;3.38;;;;;;;;;;5064234;28;20028;-74
2022/07/24 10:29:10;;;;;;;5.20;3.38;;;;;;;;;;5063645;28;20047;-74
2022/07/24 10:31:38;;;;;;;3.92;3.03;;;;;;;;;;5055877;28;20033;-74
2022/07/24 10:34:05;;;;;;;5.70;3.35;;;;;;;;;;5066201;28;20031;-74
2022/07/24 10:36:32;;;;;;;3.42;3.13;;;;;;;;;;5066896;28;20078;-74
2022/07/24 10:39:05;;;;;;;3.38;3.08;;;;;;;;;;5061440;28;20045;-74
2022/07/24 10:41:32;;;;;;;4.88;3.60;;;;;;;;;;5051580;28;20428;-75
2022/07/24 10:44:14;;;;;;;5.28;3.47;;;;;;;;;;5060608;28;20032;-74
2022/07/24 10:46:59;;;;;;;4.97;2.88;;;;;;;;;;5051420;28;20021;-74
2022/07/24 10:49:37;;;;;;;3.42;3.13;;;;;;;;;;5058028;28;20027;-74
2022/07/24 10:52:03;;;;;;;3.72;3.42;;;;;;;;;;5056529;28;20104;-74
2022/07/24 10:54:29;;;;;;;4.50;3.17;;;28.90;78.10;;;;;;5063613;28;20032;-75
2022/07/24 10:56:55;;;;;;;3.50;3.20;;;29.20;77.70;;;;;;5052346;28;20392;-74
2022/07/24 10:59:42;;;;;;;3.28;2.97;;;29.10;65.90;;;;;;5049490;28;20072;-74
2022/07/24 11:02:27;;;;;;;4.15;3.53;;;29.30;65.40;;;;;;5049396;28;20024;-75
2022/07/24 11:05:25;;;;;;;3.78;3.13;;;29.40;64.80;;;;;;5058041;28;20028;-75
2022/07/24 11:08:16;;;;;;;3.15;2.85;;;29.50;64.20;;;;;;5069591;28;20060;-74
2022/07/24 11:10:50;;;;;;;4.63;2.97;;;29.50;62.50;;;;;;5069123;28;20108;-75
2022/07/24 11:13:34;;;;;;;6.65;3.30;;;29.60;62.60;;;;;;5059654;28;20095;-75
2022/07/24 11:16:12;;;;;;;4.15;3.22;;;;;;;;;;5052025;28;20025;-74
2022/07/24 11:18:39;;;;;;;3.60;3.13;;;;;;;;;;5054963;28;20025;-75
2022/07/24 11:21:05;;;;;;;3.40;3.10;;;;;;;;;;5068478;28;20032;-74
2022/07/24 11:23:31;;;;;;;4.53;3.03;;;;;;;;;;5057756;28;20481;-74
2022/07/24 11:26:20;;;;;;;3.20;2.90;;;;;;;;;;5068068;28;20361;-74
2022/07/24 11:29:05;;;;;;;4.97;3.40;;;;;;;;;;5049015;28;20504;-74
2022/07/24 11:31:32;;;;;;;3.78;3.17;;;;;;;;;;5048202;28;20056;-74
2022/07/24 11:33:59;;;;;;;4.50;3.13;;;;;;;;;;5050310;28;20472;-74
2022/07/24 11:36:25;;;;;;;3.47;3.13;;;;;;;;;;5067992;28;20104;-74
2022/07/24 11:38:52;;;;;;;3.20;2.83;;;;;;;;;;5055568;28;20029;-74
2022/07/24 11:41:18;;;;;;;5.45;3.22;;;;;;;;;;5057264;28;20024;-74
2022/07/24 11:43:53;;;;;;;3.45;3.15;;;;;;;;;;5068926;28;20017;-74
2022/07/24 11:46:36;;;;;;;3.38;2.90;;;;;;;;;;5067991;28;20025;-74
2022/07/24 11:49:05;;;;;;;3.55;3.25;;;;;;;;;;5048763;28;20436;-74
2022/07/24 11:51:31;;;;;;;3.40;3.10;;;;;;;;;;5063803;28;20045;-74
2022/07/24 11:53:58;;;;;;;3.78;3.25;;;;;;;;;;5049148;28;20024;-75
2022/07/24 11:56:23;;;;;;;5.57;3.20;;;;;;;;;;5049167;28;20029;-74
2022/07/24 11:58:50;;;;;;;3.95;3.05;;;;;;;;;;5053463;28;20436;-74
2022/07/24 12:01:19;;;;;;;4.30;3.10;;;;;;;;;;5049899;28;20096;-74
2022/07/24 12:03:57;;;;;;;3.80;2.90;;;;;;;;;;5061392;28;20041;-74
2022/07/24 12:06:23;;;;;;;3.50;3.20;;;;;;;;;;5065641;28;20039;-75
2022/07/24 12:08:49;;;;;;;5.32;3.15;;;;;;;;;;5056636;28;20044;-75
2022/07/24 12:11:21;;;;;;;3.00;2.80;;;;;;;;;;5069294;28;20054;-74
2022/07/24 12:13:48;;;;;;;3.45;2.80;;;;;;;;;;5064226;28;20048;-74
2022/07/24 12:16:28;;;;;;;3.63;3.10;;;30.90;93.50;;;;;;5068410;28;20036;-75
2022/07/24 12:19:11;;;;;;;3.00;2.80;;;30.80;90.80;;;;;;5064287;28;20511;-75
2022/07/24 12:21:37;;;;;;;5.72;2.63;;;30.80;83.70;;;;;;5063953;28;20029;-75
2022/07/24 12:24:03;;;;;;;4.40;2.60;;;30.90;83.20;;;;;;5061553;28;20039;-74
2022/07/24 12:26:29;;;;;;;2.70;2.50;;;31.00;67.20;;;;;;5048875;28;20064;-75
2022/07/24 12:29:11;;;;;;;4.47;2.80;;;31.10;64.90;;;;;;5047464;28;20053;-75
2022/07/24 12:31:37;;;;;;;3.33;3.03;;;31.20;64.60;;;;;;5052955;28;20416;-75
2022/07/24 12:34:04;;;;;;;5.90;3.33;;;31.20;65.60;;;;;;5049603;28;20317;-74
2022/07/24 12:36:30;;;;;;;4.10;3.10;;;31.30;64.10;;;;;;5048774;28;20021;-74
2022/07/24 12:38:56;;;;;;;2.92;2.72;;;31.40;64.30;;;;;;5047475;28;20029;-74
2022/07/24 12:41:25;;;;;;;3.90;2.90;;;31.50;62.40;;;;;;5054095;28;20108;-74
2022/07/24 12:44:02;;;;;;;2.80;2.60;;;31.70;62.60;;;;;;5048790;28;20053;-74
2022/07/24 12:46:42;;;;;;;3.33;2.90;;;31.70;62.10;;;;;;5048665;28;20098;-74
2022/07/24 12:49:16;;;;;;;4.35;2.88;;;31.90;60.00;;;;;;5046834;28;20577;-74
2022/07/24 12:51:53;;;;;;;3.75;2.70;;;32.00;59.70;;;;;;5075232;28;20024;-74
2022/07/24 12:54:29;;;;;;;3.55;2.85;;;32.00;58.80;;;;;;5067230;28;20024;-75
2022/07/24 12:57:07;;;;;;;4.50;3.10;;;32.00;59.40;;;;;;5048709;28;20025;-75
2022/07/24 12:59:35;;;;;;;3.08;2.60;;;32.00;57.60;;;;;;5047148;28;20104;-74
2022/07/24 13:02:09;;;;;;;2.85;2.65;;;31.90;57.10;;;;;;5048394;28;20025;-74